createdAt,value
2022-12-09T00:03:23.442Z,9.55
2022-12-09T00:09:26.557Z,9.43
2022-12-09T00:15:28.981Z,9.44
2022-12-09T00:21:33.041Z,9.13
2022-12-09T00:27:35.207Z,9.20
2022-12-09T00:33:37.756Z,9.40
2022-12-09T00:39:40.101Z,9.10
2022-12-09T00:45:42.950Z,9.19
2022-12-09T00:51:46.425Z,9.12
2022-12-09T00:57:48.667Z,9.10
2022-12-09T01:03:51.031Z,9.15
2022-12-09T01:09:54.167Z,9.13
2022-12-09T01:15:56.534Z,9.12
2022-12-09T01:21:59.627Z,9.17
2022-12-09T01:28:02.186Z,9.06
2022-12-09T01:34:04.512Z,8.95
2022-12-09T01:40:12.006Z,8.95
2022-12-09T01:46:15.794Z,8.78
2022-12-09T01:52:24.268Z,8.87
2022-12-09T01:58:27.222Z,8.75
2022-12-09T02:04:32.890Z,8.81
2022-12-09T02:10:42.865Z,9.06
2022-12-09T02:17:14.594Z,9.04
2022-12-09T02:23:26.950Z,8.98
2022-12-09T02:29:57.991Z,8.78
2022-12-09T02:36:09.817Z,8.78
2022-12-09T02:42:20.645Z,8.73
2022-12-09T02:48:33.437Z,8.92
2022-12-09T02:54:40.244Z,8.83
2022-12-09T03:00:43.288Z,8.86
2022-12-09T03:06:53.272Z,8.93
2022-12-09T03:13:03.973Z,9.06
2022-12-09T03:19:14.156Z,8.99
2022-12-09T03:25:24.565Z,8.77
2022-12-09T03:31:32.656Z,8.93
2022-12-09T03:37:38.985Z,8.82
2022-12-09T03:43:48.205Z,8.90
2022-12-09T03:49:50.886Z,9.05
2022-12-09T03:56:09.071Z,9.06
2022-12-09T04:02:12.607Z,9.23
2022-12-09T04:08:15.214Z,9.25
2022-12-09T04:14:17.802Z,9.22
2022-12-09T04:20:20.461Z,9.39
2022-12-09T04:26:24.364Z,9.42
2022-12-09T04:32:26.668Z,9.27
2022-12-09T04:38:29.067Z,8.93
2022-12-09T04:44:32.912Z,9.11
2022-12-09T04:50:35.378Z,9.43
2022-12-09T04:56:37.579Z,9.45
2022-12-09T05:02:39.755Z,9.17
2022-12-09T05:08:42.767Z,9.27
2022-12-09T05:14:45.938Z,9.31
2022-12-09T05:20:48.331Z,9.36
2022-12-09T05:26:53.052Z,9.35
2022-12-09T05:32:56.092Z,9.14
2022-12-09T05:38:58.536Z,9.26
2022-12-09T05:45:03.047Z,9.12
2022-12-09T05:51:18.707Z,8.98
2022-12-09T05:57:21.228Z,9.22
2022-12-09T06:03:24.653Z,8.91
2022-12-09T06:09:27.975Z,8.71
2022-12-09T06:15:33.497Z,8.72
2022-12-09T06:21:40.342Z,8.64
2022-12-09T06:27:42.811Z,9.02
2022-12-09T06:33:54.639Z,8.90
2022-12-09T06:39:58.345Z,8.43
2022-12-09T06:46:02.183Z,8.97
2022-12-09T06:52:05.219Z,9.00
2022-12-09T06:58:09.492Z,9.22
2022-12-09T07:04:14.796Z,8.77
2022-12-09T07:10:18.435Z,9.18
2022-12-09T07:16:21.251Z,9.59
2022-12-09T07:22:23.862Z,9.63
2022-12-09T07:28:27.560Z,9.39
2022-12-09T07:34:30.277Z,9.49
2022-12-09T07:40:32.797Z,9.46
2022-12-09T07:46:37.180Z,9.37
2022-12-09T07:52:39.730Z,9.28
2022-12-09T07:58:43.901Z,9.32
2022-12-09T08:04:46.223Z,9.19
2022-12-09T08:10:50.053Z,9.51
2022-12-09T08:16:53.312Z,9.65
2022-12-09T08:22:58.530Z,9.96
2022-12-09T08:29:01.874Z,10.19
2022-12-09T08:35:06.673Z,9.84
2022-12-09T08:41:35.888Z,9.53
2022-12-09T08:47:38.688Z,9.69
2022-12-09T08:53:42.201Z,9.66
2022-12-09T08:59:53.171Z,9.44
2022-12-09T09:06:08.760Z,9.76
2022-12-09T09:12:18.813Z,9.79
2022-12-09T09:18:24.245Z,9.70
2022-12-09T09:24:26.823Z,9.86
2022-12-09T10:33:00.523Z,10.05
2022-12-09T10:39:06.002Z,10.27
2022-12-09T10:45:10.088Z,10.54
2022-12-09T10:51:20.873Z,10.51
2022-12-09T10:57:27.442Z,10.35
2022-12-09T11:03:32.418Z,10.57
2022-12-09T11:09:39.748Z,10.81
2022-12-09T11:15:46.149Z,10.61
2022-12-09T11:21:48.583Z,10.61
2022-12-09T11:28:21.623Z,10.76
2022-12-09T11:34:31.031Z,10.96
2022-12-09T11:40:34.919Z,11.39
2022-12-09T11:46:37.981Z,11.33
2022-12-09T11:52:43.576Z,11.67
2022-12-09T11:58:50.508Z,11.37
2022-12-09T12:05:01.949Z,11.59
2022-12-09T12:11:14.907Z,11.47
2022-12-09T12:17:26.025Z,11.86
2022-12-09T12:23:45.146Z,12.15
2022-12-09T12:30:10.098Z,12.29
2022-12-09T12:36:12.210Z,12.27
2022-12-09T12:42:32.739Z,11.87
2022-12-09T12:49:08.897Z,11.86
2022-12-09T12:55:19.608Z,11.63
2022-12-09T13:01:39.073Z,11.54
2022-12-09T13:07:59.721Z,11.65
2022-12-09T13:14:13.081Z,11.98
2022-12-09T13:20:49.384Z,12.04
2022-12-09T13:26:58.787Z,11.85
2022-12-09T13:33:22.512Z,12.01
2022-12-09T13:39:39.935Z,12.07
2022-12-09T13:45:51.129Z,12.07
2022-12-09T13:51:58.460Z,12.05
2022-12-09T13:58:15.968Z,12.11
2022-12-09T14:04:24.849Z,12.07
2022-12-09T14:10:45.466Z,11.88
2022-12-09T14:16:47.460Z,11.88
2022-12-09T14:23:05.058Z,11.78
2022-12-09T14:29:08.173Z,11.87
2022-12-09T14:35:13.758Z,11.76
2022-12-09T14:41:30.369Z,11.48
2022-12-09T14:47:39.699Z,11.31
2022-12-09T14:53:42.678Z,11.43
2022-12-09T14:59:54.190Z,11.51
2022-12-09T15:06:02.826Z,11.66
2022-12-09T15:12:11.768Z,11.49
2022-12-09T15:18:25.774Z,11.46
2022-12-09T15:24:48.913Z,11.34
2022-12-09T15:31:02.389Z,11.20
2022-12-09T15:37:06.425Z,11.14
2022-12-09T15:43:13.187Z,11.25
2022-12-09T15:49:21.373Z,11.33
2022-12-09T15:55:36.931Z,11.27
2022-12-09T16:01:39.014Z,11.23
2022-12-09T16:07:59.018Z,11.29
2022-12-09T16:14:01.628Z,11.05
2022-12-09T16:20:40.123Z,10.90
2022-12-09T16:26:47.065Z,11.13
2022-12-09T16:32:54.504Z,10.85
2022-12-09T16:39:09.331Z,10.85
2022-12-09T16:45:30.453Z,10.76
2022-12-09T16:51:33.804Z,10.63
2022-12-09T16:57:37.626Z,10.60
2022-12-09T17:04:04.494Z,10.61
2022-12-09T17:10:08.338Z,10.74
2022-12-09T17:16:10.976Z,10.78
2022-12-09T17:22:14.336Z,10.68
2022-12-09T17:28:17.343Z,10.50
2022-12-09T17:34:20.308Z,10.81
2022-12-09T17:40:22.613Z,10.83
2022-12-09T17:46:24.927Z,10.63
2022-12-09T17:52:27.211Z,10.75
2022-12-09T17:58:29.193Z,10.62
2022-12-09T18:04:32.305Z,10.38
2022-12-09T18:10:34.891Z,10.19
2022-12-09T18:16:39.159Z,10.27
2022-12-09T18:22:42.354Z,10.20
2022-12-09T18:28:47.098Z,10.06
2022-12-09T18:34:49.461Z,9.77
2022-12-09T18:41:03.738Z,10.24
2022-12-09T18:47:06.843Z,10.02
2022-12-09T18:53:13.303Z,9.96
2022-12-09T18:59:16.864Z,9.84
2022-12-09T19:05:19.347Z,9.71
2022-12-09T19:11:22.908Z,9.55
2022-12-09T19:17:25.796Z,9.44
2022-12-09T19:23:27.871Z,9.39
2022-12-09T19:29:29.882Z,9.49
2022-12-09T19:35:32.915Z,9.44
2022-12-09T19:41:37.328Z,9.41
2022-12-09T19:47:40.725Z,9.52
2022-12-09T19:53:44.417Z,9.56
2022-12-09T19:59:47.541Z,9.39
2022-12-09T20:05:52.830Z,9.39
2022-12-09T20:11:56.211Z,9.43
2022-12-09T20:17:58.705Z,9.37
2022-12-09T20:24:02.675Z,9.45
2022-12-09T20:30:07.310Z,9.56
2022-12-09T20:36:16.460Z,9.73
2022-12-09T20:42:21.126Z,9.55
2022-12-09T20:48:23.915Z,9.72
2022-12-09T20:54:26.243Z,9.94
2022-12-09T21:00:29.653Z,9.97
2022-12-09T21:06:36.050Z,9.98
2022-12-09T21:12:41.666Z,10.04
2022-12-09T21:18:44.344Z,9.90
2022-12-09T21:24:47.450Z,9.92
2022-12-09T21:30:49.530Z,9.84
2022-12-09T21:36:53.875Z,9.80
2022-12-09T21:42:57.436Z,9.71
2022-12-09T21:49:04.271Z,9.65
2022-12-09T21:55:10.667Z,9.62
2022-12-09T22:01:17.973Z,9.59
2022-12-09T22:07:20.488Z,9.61
2022-12-09T22:13:23.267Z,9.69
2022-12-09T22:19:27.004Z,9.78
2022-12-09T22:25:29.295Z,9.90
2022-12-09T22:31:35.962Z,9.85
2022-12-09T22:37:45.360Z,9.73
2022-12-09T22:43:53.401Z,9.59
2022-12-09T22:49:56.763Z,9.46
2022-12-09T22:55:59.279Z,9.50
2022-12-09T23:02:04.856Z,9.38
2022-12-09T23:08:08.985Z,9.46
2022-12-09T23:14:14.806Z,9.63
2022-12-09T23:20:17.575Z,9.60
2022-12-09T23:26:24.357Z,9.62
2022-12-09T23:32:26.800Z,9.52
2022-12-09T23:38:29.907Z,9.53
2022-12-09T23:44:32.453Z,9.54
2022-12-09T23:50:34.552Z,9.61
2022-12-09T23:56:44.563Z,9.71
